createdAt,value
2017-11-07T00:02:17.960Z,99725.23
2017-11-07T00:04:52.391Z,99693.66
2017-11-07T00:07:27.631Z,99727.85
2017-11-07T00:10:01.904Z,99711.56
2017-11-07T00:12:36.595Z,99729.27
2017-11-07T00:15:11.099Z,99729.17
2017-11-07T00:17:45.659Z,99729.53
2017-11-07T00:20:20.175Z,99734.09
2017-11-07T00:22:54.731Z,99733.19
2017-11-07T00:25:30.007Z,99731.22
2017-11-07T00:28:04.412Z,99735.94
2017-11-07T00:30:38.864Z,99730.27
2017-11-07T00:33:13.454Z,99727.47
2017-11-07T00:35:48.015Z,99725.20
2017-11-07T00:38:22.525Z,99722.95
2017-11-07T00:40:56.806Z,99725.98
2017-11-07T00:43:31.342Z,99726.72
2017-11-07T00:46:05.755Z,99725.99
2017-11-07T00:48:40.535Z,99723.78
2017-11-07T00:51:15.125Z,99724.41
2017-11-07T00:53:49.825Z,99724.80
2017-11-07T00:56:24.315Z,99682.70
2017-11-07T00:58:58.683Z,99726.23
2017-11-07T01:01:33.209Z,99724.75
2017-11-07T01:04:07.720Z,99725.16
2017-11-07T01:06:42.541Z,99722.77
2017-11-07T01:09:16.967Z,99713.32
2017-11-07T01:11:51.447Z,99712.97
2017-11-07T01:14:25.966Z,99711.08
2017-11-07T01:17:00.468Z,99708.11
2017-11-07T01:19:34.986Z,99708.42
2017-11-07T01:22:09.367Z,99700.89
2017-11-07T01:24:43.906Z,99702.49
2017-11-07T01:27:18.423Z,99707.09
2017-11-07T01:29:52.888Z,99703.59
2017-11-07T01:32:27.290Z,99708.74
2017-11-07T01:35:01.901Z,99711.56
2017-11-07T01:37:36.335Z,99708.07
2017-11-07T01:40:10.743Z,99704.34
2017-11-07T01:42:45.168Z,99694.18
2017-11-07T01:45:20.145Z,99710.45
2017-11-07T01:47:54.574Z,99682.80
2017-11-07T01:50:29.039Z,99707.80
2017-11-07T01:53:03.513Z,99718.10
2017-11-07T01:55:38.075Z,99710.38
2017-11-07T01:58:13.295Z,99709.98
2017-11-07T02:00:47.566Z,99709.81
2017-11-07T02:03:22.984Z,99707.05
2017-11-07T02:05:57.550Z,99699.77
2017-11-07T02:08:32.095Z,99699.59
2017-11-07T02:11:06.591Z,99694.66
2017-11-07T02:13:41.194Z,99692.28
2017-11-07T02:16:15.683Z,99691.88
2017-11-07T02:18:50.195Z,99696.56
2017-11-07T02:21:24.355Z,99692.38
2017-11-07T02:23:58.415Z,99691.42
2017-11-07T02:26:32.546Z,99690.38
2017-11-07T02:29:07.132Z,99687.55
2017-11-07T02:31:41.414Z,99689.04
2017-11-07T02:34:16.610Z,99686.27
2017-11-07T02:36:51.558Z,99681.34
2017-11-07T02:39:26.098Z,99677.85
2017-11-07T02:42:00.478Z,99678.69
2017-11-07T02:44:35.031Z,99680.79
2017-11-07T02:47:09.479Z,99673.47
2017-11-07T02:49:44.003Z,99677.64
2017-11-07T02:52:18.550Z,99680.98
2017-11-07T02:54:53.056Z,99686.86
2017-11-07T02:57:28.262Z,99679.94
2017-11-07T03:00:02.751Z,99684.28
2017-11-07T03:02:37.278Z,99668.72
2017-11-07T03:05:12.420Z,99671.14
2017-11-07T03:07:46.862Z,99664.68
2017-11-07T03:10:21.310Z,99665.06
2017-11-07T03:12:55.765Z,99667.09
2017-11-07T03:15:30.181Z,99666.17
2017-11-07T03:18:04.608Z,99665.22
2017-11-07T03:20:39.067Z,99664.74
2017-11-07T03:23:13.678Z,99661.84
2017-11-07T03:25:48.082Z,99661.06
2017-11-07T03:28:22.830Z,99667.13
2017-11-07T03:30:57.491Z,99672.14
2017-11-07T03:33:32.011Z,99668.99
2017-11-07T03:36:06.466Z,99669.94
2017-11-07T03:38:41.061Z,99666.56
2017-11-07T03:41:15.523Z,99667.18
2017-11-07T03:43:50.071Z,99662.09
2017-11-07T03:46:25.047Z,99655.73
2017-11-07T03:48:59.468Z,99646.20
2017-11-07T03:51:34.064Z,99655.56
2017-11-07T03:54:08.482Z,99658.37
2017-11-07T03:56:42.930Z,99645.88
2017-11-07T03:59:17.345Z,99641.87
2017-11-07T04:01:51.876Z,99640.82
2017-11-07T04:04:26.347Z,99644.37
2017-11-07T04:07:00.964Z,99652.97
2017-11-07T04:09:35.615Z,99646.84
2017-11-07T04:12:10.034Z,99651.29
2017-11-07T04:14:45.147Z,99657.63
2017-11-07T04:17:19.782Z,99653.65
2017-11-07T04:19:54.302Z,99646.93
2017-11-07T04:22:28.746Z,99647.16
2017-11-07T04:25:03.188Z,99656.75
2017-11-07T04:27:37.691Z,99657.24
2017-11-07T04:30:12.210Z,99652.05
2017-11-07T04:32:46.838Z,99658.82
2017-11-07T04:35:21.230Z,99655.62
2017-11-07T04:37:55.819Z,99651.87
2017-11-07T04:40:30.270Z,99654.57
2017-11-07T04:43:04.830Z,99659.10
2017-11-07T04:45:39.287Z,99660.34
2017-11-07T04:48:13.787Z,99648.97
2017-11-07T04:50:48.266Z,99662.60
2017-11-07T04:53:22.808Z,99661.66
2017-11-07T04:55:57.247Z,99664.89
2017-11-07T04:58:31.688Z,99669.04
2017-11-07T05:01:06.258Z,99673.67
2017-11-07T05:03:40.884Z,99671.84
2017-11-07T05:06:15.282Z,99669.06
2017-11-07T05:08:49.893Z,99667.03
2017-11-07T05:11:24.287Z,99657.97
2017-11-07T05:13:58.900Z,99657.81
2017-11-07T05:16:34.142Z,99655.33
2017-11-07T05:19:08.742Z,99651.72
2017-11-07T05:21:43.195Z,99658.36
2017-11-07T05:24:17.431Z,99653.30
2017-11-07T05:26:52.083Z,99657.81
2017-11-07T05:29:26.603Z,99659.73
2017-11-07T05:32:01.194Z,99659.36
2017-11-07T05:34:35.783Z,99659.09
2017-11-07T05:37:10.299Z,99656.94
2017-11-07T05:39:44.913Z,99664.33
2017-11-07T05:42:19.289Z,99662.93
2017-11-07T05:44:53.915Z,99662.75
2017-11-07T05:47:28.918Z,99637.05
2017-11-07T05:50:03.459Z,99670.98
2017-11-07T05:52:37.862Z,99671.13
2017-11-07T05:55:12.331Z,99667.52
2017-11-07T05:57:47.806Z,99677.77
2017-11-07T06:00:21.942Z,99664.54
2017-11-07T06:02:56.539Z,99660.63
2017-11-07T06:05:31.038Z,99666.29
2017-11-07T06:08:05.574Z,99669.36
2017-11-07T06:10:40.011Z,99669.24
2017-11-07T06:13:14.558Z,99667.28
2017-11-07T06:15:49.128Z,99671.05
2017-11-07T06:18:23.572Z,99669.70
2017-11-07T06:20:57.645Z,99674.30
2017-11-07T06:23:32.047Z,99673.60
2017-11-07T06:26:06.538Z,99675.85
2017-11-07T06:28:40.881Z,99674.65
2017-11-07T06:31:15.379Z,99672.04
2017-11-07T06:33:50.030Z,99670.66
2017-11-07T06:36:24.260Z,99668.65
2017-11-07T06:38:58.771Z,99669.06
2017-11-07T06:41:34.379Z,99677.22
2017-11-07T06:44:09.022Z,99656.80
2017-11-07T06:46:43.832Z,99682.64
2017-11-07T06:49:18.354Z,99686.16
2017-11-07T06:51:52.782Z,99682.45
2017-11-07T06:54:27.238Z,99689.55
2017-11-07T06:57:01.739Z,99688.78
2017-11-07T06:59:36.261Z,99691.17
2017-11-07T07:02:10.747Z,99688.64
2017-11-07T07:04:45.806Z,99686.70
2017-11-07T07:07:20.394Z,99691.42
2017-11-07T07:09:54.991Z,99681.58
2017-11-07T07:12:29.580Z,99693.40
2017-11-07T07:15:04.207Z,99689.66
2017-11-07T07:17:38.662Z,99694.98
2017-11-07T07:20:13.079Z,99686.16
2017-11-07T07:22:47.671Z,99685.70
2017-11-07T07:25:22.273Z,99686.98
2017-11-07T07:27:56.864Z,99688.99
2017-11-07T07:30:31.274Z,99614.63
2017-11-07T07:33:05.754Z,99684.88
2017-11-07T07:35:40.143Z,99683.27
2017-11-07T07:38:14.714Z,99678.97
2017-11-07T07:40:49.434Z,99682.88
2017-11-07T07:43:23.854Z,99682.80
2017-11-07T07:45:58.657Z,99686.27
2017-11-07T07:48:33.388Z,99682.78
2017-11-07T07:51:07.923Z,99671.71
2017-11-07T07:53:42.523Z,99668.76
2017-11-07T07:56:17.137Z,99664.05
2017-11-07T07:58:51.640Z,99672.39
2017-11-07T08:01:26.519Z,99666.97
2017-11-07T08:04:01.053Z,99674.04
2017-11-07T08:06:35.146Z,99668.04
2017-11-07T08:09:09.549Z,99671.30
2017-11-07T08:11:43.690Z,99672.05
2017-11-07T08:14:17.687Z,99678.95
2017-11-07T08:16:52.174Z,99674.81
2017-11-07T08:19:26.679Z,99666.33
2017-11-07T08:22:01.163Z,99666.18
2017-11-07T08:24:35.791Z,99651.42
2017-11-07T08:27:10.281Z,99665.22
2017-11-07T08:29:44.903Z,99678.34
2017-11-07T08:32:19.314Z,99681.75
2017-11-07T08:34:53.779Z,99671.16
2017-11-07T08:37:28.222Z,99648.59
2017-11-07T08:40:03.310Z,99667.33
2017-11-07T08:42:42.023Z,99666.74
2017-11-07T08:45:16.447Z,99666.42
2017-11-07T08:47:50.826Z,99669.15
2017-11-07T08:50:26.426Z,99680.71
2017-11-07T08:53:01.617Z,99676.44
2017-11-07T08:55:36.005Z,99668.09
2017-11-07T08:58:10.452Z,99669.03
2017-11-07T09:00:45.376Z,99666.50
2017-11-07T09:03:19.949Z,99667.47
2017-11-07T09:05:54.404Z,99668.17
2017-11-07T09:08:28.935Z,99656.77
2017-11-07T09:11:03.526Z,99651.79
2017-11-07T09:13:37.970Z,99661.05
2017-11-07T09:16:12.397Z,99672.98
2017-11-07T09:18:47.019Z,99663.74
2017-11-07T09:21:21.504Z,99652.69
2017-11-07T09:23:56.070Z,99650.85
2017-11-07T09:26:30.501Z,99648.75
2017-11-07T09:29:04.993Z,99651.23
2017-11-07T09:31:39.393Z,99653.62
2017-11-07T09:34:13.919Z,99647.95
2017-11-07T09:36:48.327Z,99653.45
2017-11-07T09:39:22.958Z,99652.02
2017-11-07T09:41:57.470Z,99656.78
2017-11-07T09:44:32.642Z,120514.73
2017-11-07T09:47:07.192Z,120514.73
2017-11-07T09:49:41.699Z,120514.73
2017-11-07T09:52:16.158Z,120514.73
2017-11-07T09:54:50.955Z,120514.73
2017-11-07T09:57:25.392Z,120514.73
2017-11-07T09:59:59.990Z,120514.73
2017-11-07T10:02:34.412Z,120514.73
2017-11-07T10:05:14.585Z,120514.73
2017-11-07T10:07:49.014Z,120514.73
2017-11-07T10:10:23.511Z,120514.73
2017-11-07T10:12:58.151Z,120514.73
2017-11-07T10:15:32.574Z,120514.73
2017-11-07T10:18:07.186Z,120514.73
2017-11-07T10:20:41.684Z,120514.73
2017-11-07T10:23:15.784Z,120514.73
2017-11-07T10:25:50.210Z,120514.73
2017-11-07T10:28:24.758Z,120514.73
2017-11-07T10:30:59.041Z,120514.73
2017-11-07T10:33:33.462Z,120514.73
2017-11-07T10:36:07.575Z,120514.73
2017-11-07T10:38:42.715Z,99554.52
2017-11-07T10:41:17.275Z,99555.98
2017-11-07T10:43:51.693Z,99550.22
2017-11-07T10:46:26.150Z,99542.59
2017-11-07T10:49:00.654Z,99541.52
2017-11-07T10:51:35.199Z,99546.23
2017-11-07T10:54:09.723Z,99540.29
2017-11-07T10:56:44.229Z,99535.51
2017-11-07T10:59:18.778Z,99524.86
2017-11-07T11:01:53.564Z,120514.73
2017-11-07T11:04:28.246Z,120514.73
2017-11-07T11:07:02.858Z,120514.73
2017-11-07T11:09:37.464Z,120514.73
2017-11-07T11:12:11.875Z,120514.73
2017-11-07T11:14:46.454Z,120514.73
2017-11-07T11:17:20.862Z,120514.73
2017-11-07T11:19:55.467Z,120514.73
2017-11-07T11:22:29.906Z,120514.73
2017-11-07T11:25:06.244Z,120514.73
2017-11-07T11:27:40.875Z,120514.73
2017-11-07T11:30:15.315Z,120514.73
2017-11-07T11:32:49.894Z,120514.73
2017-11-07T11:35:24.423Z,120514.73
2017-11-07T11:37:59.720Z,120514.73
2017-11-07T11:40:34.258Z,120514.73
2017-11-07T11:43:08.806Z,120514.73
2017-11-07T11:45:43.251Z,120514.73
2017-11-07T11:48:17.886Z,120514.73
2017-11-07T11:50:52.664Z,120514.73
2017-11-07T11:53:27.088Z,120514.73
2017-11-07T11:56:00.951Z,120514.73
2017-11-07T11:58:35.488Z,120514.73
2017-11-07T12:01:09.900Z,120514.73
2017-11-07T12:03:44.404Z,120514.73
2017-11-07T12:06:18.826Z,120514.73
2017-11-07T12:08:53.478Z,120514.73
2017-11-07T12:11:28.851Z,120514.73
2017-11-07T12:14:03.338Z,120514.73
2017-11-07T12:16:37.867Z,120514.73
2017-11-07T12:19:12.407Z,120514.73
2017-11-07T12:21:46.839Z,120514.73
2017-11-07T12:24:21.878Z,120514.73
2017-11-07T12:26:56.307Z,120514.73
2017-11-07T12:29:30.951Z,120514.73
2017-11-07T12:32:05.368Z,120514.73
2017-11-07T12:34:39.899Z,120514.73
2017-11-07T12:37:13.983Z,120514.73
2017-11-07T12:39:48.550Z,120514.73
2017-11-07T12:42:22.806Z,120514.73
2017-11-07T12:44:57.395Z,120514.73
2017-11-07T12:47:31.807Z,120514.73
2017-11-07T12:50:17.317Z,120514.73
2017-11-07T12:52:51.888Z,120514.73
2017-11-07T12:55:26.359Z,120514.73
2017-11-07T12:58:00.982Z,120514.73
2017-11-07T13:00:35.460Z,120514.73
2017-11-07T13:03:09.999Z,120514.73
2017-11-07T13:05:44.419Z,120514.73
2017-11-07T13:08:19.707Z,120514.73
2017-11-07T13:10:54.298Z,120514.73
2017-11-07T13:13:28.880Z,120514.73
2017-11-07T13:16:04.060Z,120514.73
2017-11-07T13:18:38.544Z,120514.73
2017-11-07T13:21:13.443Z,120514.73
2017-11-07T13:23:47.862Z,120514.73
2017-11-07T13:26:22.395Z,120514.73
2017-11-07T13:28:56.922Z,120514.73
2017-11-07T13:31:31.502Z,120514.73
2017-11-07T13:34:06.126Z,120514.73
2017-11-07T13:36:40.586Z,120514.73
2017-11-07T13:39:15.143Z,120514.73
2017-11-07T13:41:49.652Z,120514.73
2017-11-07T13:44:24.446Z,120514.73
2017-11-07T13:46:58.694Z,120514.73
2017-11-07T13:49:33.819Z,120514.73
2017-11-07T13:52:08.373Z,120514.73
2017-11-07T13:54:42.855Z,120514.73
2017-11-07T13:57:17.414Z,120514.73
2017-11-07T13:59:51.947Z,120514.73
2017-11-07T14:02:26.443Z,120514.73
2017-11-07T14:05:00.928Z,120514.73
2017-11-07T14:07:35.364Z,99410.45
2017-11-07T14:10:09.769Z,99411.42
2017-11-07T14:12:44.186Z,99415.30
2017-11-07T14:15:18.598Z,99405.39
2017-11-07T14:17:52.983Z,99404.89
2017-11-07T14:20:28.126Z,99398.65
2017-11-07T14:23:02.558Z,99400.94
2017-11-07T14:25:37.125Z,99399.06
2017-11-07T14:28:11.652Z,99415.23
2017-11-07T14:30:46.761Z,99402.46
2017-11-07T14:33:21.406Z,99406.08
2017-11-07T14:35:55.824Z,99416.73
2017-11-07T14:38:30.375Z,99418.89
2017-11-07T14:41:04.233Z,99418.84
2017-11-07T14:43:38.892Z,99427.23
2017-11-07T14:46:13.578Z,99420.34
2017-11-07T14:48:48.295Z,99419.77
2017-11-07T14:51:22.819Z,99416.87
2017-11-07T14:53:57.377Z,99407.39
2017-11-07T14:56:31.916Z,99415.28
2017-11-07T14:59:06.296Z,99411.59
2017-11-07T15:01:40.814Z,99411.34
2017-11-07T15:04:16.191Z,99419.80
2017-11-07T15:06:50.798Z,99416.46
2017-11-07T15:09:25.347Z,99410.05
2017-11-07T15:12:04.749Z,99406.01
2017-11-07T15:14:40.763Z,99399.17
2017-11-07T15:17:15.368Z,99397.05
2017-11-07T15:19:50.091Z,99398.69
2017-11-07T15:22:24.607Z,99394.52
2017-11-07T15:24:59.254Z,99380.50
2017-11-07T15:27:33.783Z,99379.99
2017-11-07T15:30:14.646Z,99378.02
2017-11-07T15:32:49.162Z,99371.88
2017-11-07T15:35:23.678Z,99379.20
2017-11-07T15:37:58.397Z,99373.72
2017-11-07T15:40:34.237Z,99375.23
2017-11-07T15:43:08.789Z,99375.25
2017-11-07T15:45:43.226Z,99379.80
2017-11-07T15:48:17.770Z,99377.95
2017-11-07T15:50:52.951Z,99377.73
2017-11-07T15:53:27.647Z,99378.23
2017-11-07T15:56:03.395Z,99379.59
2017-11-07T15:58:37.969Z,99379.76
2017-11-07T16:01:12.410Z,99381.44
2017-11-07T16:03:47.039Z,99384.00
2017-11-07T16:06:24.474Z,99374.80
2017-11-07T16:08:59.033Z,99379.31
2017-11-07T16:11:34.483Z,99335.19
2017-11-07T16:14:10.081Z,99376.34
2017-11-07T16:16:44.562Z,99372.95
2017-11-07T16:19:20.630Z,99381.52
2017-11-07T16:21:57.872Z,99371.98
2017-11-07T16:24:35.890Z,99378.48
2017-11-07T16:27:11.651Z,99383.09
2017-11-07T16:29:46.311Z,99380.77
2017-11-07T16:32:20.762Z,99379.83
2017-11-07T16:34:55.353Z,99378.45
2017-11-07T16:37:30.567Z,99377.13
2017-11-07T16:40:13.399Z,99387.61
2017-11-07T16:42:47.635Z,99386.20
2017-11-07T16:45:24.280Z,99391.09
2017-11-07T16:48:00.124Z,99391.08
2017-11-07T16:50:34.775Z,99385.48
2017-11-07T16:53:09.974Z,99381.81
2017-11-07T16:55:44.627Z,99390.24
2017-11-07T16:58:19.148Z,99367.80
2017-11-07T17:00:53.573Z,99369.85
2017-11-07T17:03:28.469Z,99381.75
2017-11-07T17:06:04.167Z,99381.03
2017-11-07T17:08:38.749Z,99375.38
2017-11-07T17:11:13.195Z,99387.44
2017-11-07T17:13:47.774Z,99378.58
2017-11-07T17:16:22.271Z,99381.69
2017-11-07T17:18:56.765Z,99377.80
2017-11-07T17:21:31.327Z,99382.45
2017-11-07T17:24:06.446Z,99379.29
2017-11-07T17:26:40.962Z,99335.46
2017-11-07T17:29:15.605Z,99381.64
2017-11-07T17:31:50.786Z,99377.47
2017-11-07T17:34:25.388Z,99383.09
2017-11-07T17:37:00.542Z,99375.75
2017-11-07T17:39:34.970Z,99380.56
2017-11-07T17:42:09.589Z,99381.67
2017-11-07T17:44:44.106Z,99380.27
2017-11-07T17:47:18.555Z,99388.47
2017-11-07T17:49:53.156Z,99375.16
2017-11-07T17:52:27.640Z,99377.32
2017-11-07T17:55:02.192Z,99368.40
2017-11-07T17:57:36.643Z,99382.33
2017-11-07T18:00:11.144Z,99381.88
2017-11-07T18:02:45.655Z,99393.53
2017-11-07T18:05:20.059Z,99400.44
2017-11-07T18:07:54.482Z,99389.34
2017-11-07T18:10:28.954Z,99394.89
2017-11-07T18:13:03.543Z,99388.34
2017-11-07T18:15:38.039Z,99387.72
2017-11-07T18:18:12.610Z,99391.73
2017-11-07T18:20:47.299Z,99388.56
2017-11-07T18:23:21.838Z,99380.23
2017-11-07T18:25:56.242Z,99386.00
2017-11-07T18:28:31.738Z,99381.64
2017-11-07T18:31:07.202Z,99382.02
2017-11-07T18:33:42.323Z,99391.14
2017-11-07T18:36:16.711Z,99395.62
2017-11-07T18:38:51.234Z,99389.86
2017-11-07T18:41:25.647Z,99393.06
2017-11-07T18:44:00.099Z,99392.92
2017-11-07T18:46:34.591Z,99393.11
2017-11-07T18:49:09.239Z,99391.53
2017-11-07T18:51:43.745Z,99396.38
2017-11-07T18:54:18.275Z,99410.48
2017-11-07T18:56:52.730Z,99401.14
2017-11-07T18:59:27.365Z,99400.38
2017-11-07T19:02:01.758Z,99403.82
2017-11-07T19:04:36.151Z,99398.41
2017-11-07T19:07:10.650Z,99400.53
2017-11-07T19:09:45.298Z,99400.80
2017-11-07T19:12:20.019Z,99405.44
2017-11-07T19:14:54.766Z,99405.06
2017-11-07T19:17:29.388Z,99404.95
2017-11-07T19:20:04.306Z,99401.20
2017-11-07T19:22:38.908Z,99404.16
2017-11-07T19:25:13.591Z,99394.09
2017-11-07T19:27:48.138Z,99396.69
2017-11-07T19:30:22.690Z,99394.43
2017-11-07T19:32:57.107Z,99391.27
2017-11-07T19:35:31.524Z,99399.02
2017-11-07T19:38:06.084Z,99396.12
2017-11-07T19:40:40.526Z,99394.02
2017-11-07T19:43:15.830Z,99386.09
2017-11-07T19:45:50.258Z,99395.72
2017-11-07T19:48:24.854Z,99396.53
2017-11-07T19:50:59.351Z,99394.02
2017-11-07T19:53:33.890Z,99397.39
2017-11-07T19:56:08.394Z,99393.48
2017-11-07T19:58:42.926Z,99392.70
2017-11-07T20:01:18.018Z,99388.55
2017-11-07T20:03:53.295Z,99394.50
2017-11-07T20:06:27.630Z,99395.59
2017-11-07T20:09:02.122Z,99397.53
2017-11-07T20:11:36.606Z,99396.69
2017-11-07T20:14:11.166Z,99401.66
2017-11-07T20:16:45.683Z,99405.73
2017-11-07T20:19:20.303Z,99408.59
2017-11-07T20:21:54.822Z,99405.50
2017-11-07T20:24:29.410Z,99405.77
2017-11-07T20:27:03.898Z,99401.31
2017-11-07T20:29:38.508Z,99394.98
2017-11-07T20:32:12.920Z,99400.88
2017-11-07T20:34:48.065Z,99396.20
2017-11-07T20:37:22.601Z,99400.91
2017-11-07T20:39:57.198Z,99409.99
2017-11-07T20:42:31.608Z,99409.36
2017-11-07T20:45:09.026Z,99273.05
2017-11-07T20:47:43.654Z,99404.09
2017-11-07T20:50:18.040Z,99408.69
2017-11-07T20:52:53.294Z,99406.95
2017-11-07T20:55:30.249Z,99400.55
2017-11-07T20:58:04.727Z,99401.75
2017-11-07T21:00:39.206Z,99394.86
2017-11-07T21:03:13.759Z,99403.14
2017-11-07T21:05:48.282Z,99409.58
2017-11-07T21:08:22.823Z,99406.42
2017-11-07T21:10:57.882Z,99401.67
2017-11-07T21:13:32.436Z,99401.44
2017-11-07T21:16:07.090Z,99404.17
2017-11-07T21:18:41.667Z,99413.23
2017-11-07T21:21:16.211Z,99416.59
2017-11-07T21:23:54.258Z,99409.25
2017-11-07T21:26:29.926Z,99406.58
2017-11-07T21:29:04.531Z,99410.91
2017-11-07T21:31:39.736Z,99410.70
2017-11-07T21:34:19.709Z,99408.59
2017-11-07T21:36:54.234Z,99411.17
2017-11-07T21:39:28.727Z,99412.38
2017-11-07T21:42:03.152Z,99404.49
2017-11-07T21:44:37.542Z,99371.40
2017-11-07T21:47:12.044Z,99393.22
2017-11-07T21:49:46.468Z,99387.20
2017-11-07T21:52:20.974Z,99381.31
2017-11-07T21:54:55.523Z,99372.97
2017-11-07T21:57:30.551Z,99373.92
2017-11-07T22:00:05.159Z,99373.14
2017-11-07T22:02:39.690Z,99380.92
2017-11-07T22:05:14.170Z,99375.83
2017-11-07T22:07:48.645Z,99374.09
2017-11-07T22:10:23.246Z,99370.77
2017-11-07T22:12:57.802Z,99378.02
2017-11-07T22:15:32.584Z,99381.61
2017-11-07T22:18:10.905Z,99370.37
2017-11-07T22:20:45.650Z,99374.39
2017-11-07T22:23:25.961Z,99377.08
2017-11-07T22:26:00.530Z,99378.81
2017-11-07T22:28:34.871Z,99377.86
2017-11-07T22:31:09.162Z,99368.46
2017-11-07T22:33:43.823Z,99359.59
2017-11-07T22:36:18.292Z,99360.39
2017-11-07T22:38:52.936Z,99361.58
2017-11-07T22:41:27.436Z,99356.19
2017-11-07T22:44:01.647Z,99359.21
2017-11-07T22:46:36.266Z,99364.58
2017-11-07T22:49:10.862Z,99373.59
2017-11-07T22:51:45.241Z,99368.33
2017-11-07T22:54:19.775Z,99376.94
2017-11-07T22:56:54.527Z,99381.89
2017-11-07T22:59:29.037Z,99374.38
2017-11-07T23:02:02.802Z,99368.73
2017-11-07T23:04:37.192Z,99372.22
2017-11-07T23:07:12.398Z,99362.21
2017-11-07T23:09:46.936Z,99360.86
2017-11-07T23:12:21.582Z,99361.37
2017-11-07T23:14:56.115Z,99335.56
2017-11-07T23:17:30.640Z,99354.52
2017-11-07T23:20:04.899Z,99351.02
2017-11-07T23:22:39.545Z,99350.77
2017-11-07T23:25:14.002Z,99338.02
2017-11-07T23:27:48.590Z,99350.06
2017-11-07T23:30:23.198Z,99347.68
2017-11-07T23:32:57.797Z,99355.64
2017-11-07T23:35:32.296Z,99357.97
2017-11-07T23:38:06.859Z,99366.17
2017-11-07T23:40:41.571Z,99368.34
2017-11-07T23:43:16.298Z,99367.69
2017-11-07T23:45:50.776Z,99348.22
2017-11-07T23:48:25.380Z,99353.70
2017-11-07T23:51:02.598Z,99348.06
2017-11-07T23:53:37.159Z,99356.80
2017-11-07T23:56:11.733Z,99346.44
2017-11-07T23:58:46.301Z,99344.86
